.
WxDataArchive / Data Records for 2013-10-02
2013-10-01 October 2013 2013-10-03

Data Records for Wednesday, 02 October 2013

Time	Temp	Chill	HIndex	Humid	Dewpt	 Wind 	HiWind	WindDir	Rain 	Barom 
-----	----	-----	------	-----	-----	------	------	-------	-----	----- 
00:00	64.3	64.3	64.3	85	59.7	0	1	315	0.00	29.979 
00:05	64.3	64.3	64.3	85	59.7	0	1	315	0.00	29.979 
00:10	64.3	64.3	64.3	85	59.7	0	1	315	0.00	29.979 
00:15	64.5	64.5	64.5	85	59.9	0	2	315	0.00	29.978 
00:20	64.7	64.7	64.7	85	60.1	0	2	315	0.00	29.978 
00:25	64.7	64.7	64.7	84	59.7	0	1	315	0.00	29.978 
00:30	64.8	64.8	64.8	84	59.8	0	2	315	0.00	29.979 
00:35	65.0	65.0	65.0	84	60.0	0	1	315	0.00	29.979 
00:40	65.0	65.0	65.0	84	60.0	0	2	315	0.00	29.979 
00:45	65.2	65.2	65.2	84	60.2	0	3	270	0.00	29.982 
00:50	65.3	65.3	65.3	84	60.3	0	2	248	0.00	29.982 
00:55	65.3	65.3	65.3	84	60.3	0	1	248	0.00	29.982 
01:00	65.3	65.3	65.3	84	60.3	0	1	248	0.00	29.983 
01:05	65.3	65.3	65.3	84	60.3	0	1	248	0.00	29.983 
01:10	65.3	65.3	65.3	84	60.3	0	1	248	0.00	29.983 
01:15	65.3	65.3	65.3	85	60.7	0	1	248	0.00	29.983 
01:20	65.2	65.2	65.2	85	60.6	0	0	---	0.00	29.983 
01:25	65.2	65.2	65.2	85	60.6	0	1	248	0.00	29.983 
01:30	65.0	65.0	65.0	85	60.4	0	1	248	0.00	29.985 
01:35	65.0	65.0	65.0	86	60.7	0	1	248	0.00	29.985 
01:40	64.8	64.8	64.8	86	60.5	0	1	248	0.00	29.985 
01:45	64.7	64.7	64.7	86	60.4	0	0	---	0.00	29.987 
01:50	64.5	64.5	64.5	87	60.5	0	0	---	0.00	29.987 
01:55	64.5	64.5	64.5	87	60.5	0	0	---	0.00	29.987 
02:00	64.3	64.3	64.3	87	60.3	0	0	---	0.00	29.993 
02:05	64.2	64.2	64.2	88	60.6	0	0	---	0.00	29.993 
02:10	64.2	64.2	64.2	88	60.6	0	0	---	0.00	29.993 
02:15	64.0	64.0	64.0	88	60.4	0	0	---	0.00	29.992 
02:20	63.9	63.9	63.9	88	60.3	0	1	248	0.00	29.992 
02:25	63.9	63.9	63.9	89	60.6	0	0	---	0.00	29.992 
02:30	63.9	63.9	63.9	89	60.6	0	0	---	0.00	29.992 
02:35	63.7	63.7	63.7	89	60.4	0	0	---	0.00	29.992 
02:40	63.5	63.5	63.5	89	60.2	0	1	248	0.00	29.992 
02:45	63.7	63.7	63.7	90	60.7	0	0	---	0.00	29.993 
02:50	63.7	63.7	63.7	90	60.7	0	1	248	0.00	29.993 
02:55	63.7	63.7	63.7	90	60.7	0	0	---	0.00	29.993 
03:00	63.7	63.7	63.7	90	60.7	0	0	---	0.00	29.994 
03:05	63.5	63.5	63.5	91	60.8	0	0	---	0.00	29.994 
03:10	63.5	63.5	63.5	91	60.8	0	0	---	0.00	29.994 
03:15	63.5	63.5	63.5	91	60.8	0	0	---	0.00	29.991 
03:20	63.4	63.4	63.4	91	60.7	0	0	---	0.00	29.991 
03:25	63.4	63.4	63.4	91	60.7	0	0	---	0.00	29.991 
03:30	63.4	63.4	63.4	91	60.7	0	0	---	0.00	29.991 
03:35	63.4	63.4	63.4	91	60.7	0	0	---	0.00	29.991 
03:40	63.2	63.2	63.2	92	60.8	0	0	---	0.00	29.991 
03:45	63.2	63.2	63.2	92	60.8	0	0	---	0.00	29.991 
03:50	63.1	63.1	63.1	92	60.7	0	0	---	0.00	29.991 
03:55	63.1	63.1	63.1	92	60.7	0	0	---	0.00	29.991 
04:00	63.1	63.1	63.1	92	60.7	0	0	---	0.00	29.992 
04:05	62.9	62.9	62.9	92	60.5	0	0	---	0.00	29.992 
04:10	62.9	62.9	62.9	92	60.5	0	0	---	0.00	29.992 
04:15	62.9	62.9	62.9	92	60.5	0	0	---	0.00	29.997 
04:20	62.7	62.7	62.7	92	60.3	0	0	---	0.00	29.997 
04:25	62.7	62.7	62.7	93	60.6	0	0	---	0.00	29.997 
04:30	62.9	62.9	62.9	93	60.8	0	0	---	0.00	29.998 
04:35	62.9	62.9	62.9	93	60.8	0	0	---	0.00	29.998 
04:40	63.1	63.1	63.1	93	61.0	0	0	---	0.00	29.998 
04:45	63.1	63.1	63.1	93	61.0	0	0	---	0.00	30.001 
04:50	63.1	63.1	63.1	93	61.0	0	1	248	0.00	30.001 
04:55	63.1	63.1	63.1	93	61.0	0	1	248	0.00	30.001 
05:00	63.1	63.1	63.1	93	61.0	0	1	248	0.00	30.005 
05:05	63.1	63.1	63.1	93	61.0	0	0	---	0.00	30.005 
05:10	62.9	62.9	62.9	93	60.8	0	0	---	0.00	30.005 
05:15	62.9	62.9	62.9	93	60.8	0	0	---	0.00	30.004 
05:20	62.7	62.7	62.7	93	60.6	0	0	---	0.00	30.004 
05:25	62.6	62.6	62.6	94	60.8	0	0	---	0.00	30.004 
05:30	62.6	62.6	62.6	94	60.8	0	0	---	0.00	30.005 
05:35	62.6	62.6	62.6	94	60.8	0	0	---	0.00	30.005 
05:40	62.4	62.4	62.4	94	60.6	0	0	---	0.00	30.005 
05:45	62.4	62.4	62.4	94	60.6	0	0	---	0.00	30.009 
05:50	62.3	62.3	62.3	94	60.5	0	0	---	0.00	30.009 
05:55	62.4	62.4	62.4	94	60.6	0	0	---	0.00	30.009 
06:00	62.4	62.4	62.4	94	60.6	0	0	---	0.00	30.015 
06:05	62.6	62.6	62.6	94	60.8	0	0	---	0.00	30.015 
06:10	62.7	62.7	62.7	94	60.9	0	0	---	0.00	30.015 
06:15	62.9	62.9	62.9	94	61.1	0	0	---	0.00	30.017 
06:20	63.1	63.1	63.1	95	61.6	0	0	---	0.00	30.017 
06:25	63.4	63.4	63.4	95	61.9	0	0	---	0.00	30.017 
06:30	63.5	63.5	63.5	95	62.0	0	1	248	0.00	30.021 
06:35	63.7	63.7	63.7	95	62.2	0	1	248	0.00	30.021 
06:40	63.7	63.7	63.7	95	62.2	0	1	248	0.00	30.021 
06:45	63.9	63.9	63.9	95	62.4	0	1	248	0.00	30.022 
06:50	63.9	63.9	63.9	95	62.4	0	1	248	0.00	30.022 
06:55	64.2	64.2	64.2	95	62.7	0	1	248	0.00	30.022 
07:00	64.3	64.3	64.3	95	62.8	0	1	248	0.00	30.024 
07:05	64.3	64.3	64.3	95	62.8	0	1	248	0.00	30.024 
07:10	64.3	64.3	64.3	95	62.8	0	1	248	0.00	30.024 
07:15	64.3	64.3	64.3	95	62.8	0	2	248	0.00	30.031 
07:20	64.5	64.5	64.5	95	63.0	0	1	248	0.00	30.031 
07:25	64.5	64.5	64.5	95	63.0	0	1	248	0.00	30.031 
07:30	64.5	64.5	64.5	95	63.0	0	1	248	0.00	30.038 
07:35	64.7	64.7	64.7	95	63.2	0	1	248	0.00	30.038 
07:40	64.7	64.7	64.7	95	63.2	0	1	248	0.00	30.038 
07:45	64.7	64.7	64.7	95	63.2	0	1	248	0.00	30.040 
07:50	64.7	64.7	64.7	95	63.2	0	0	---	0.00	30.040 
07:55	64.7	64.7	64.7	95	63.2	0	1	248	0.00	30.040 
08:00	64.8	64.8	64.8	95	63.3	0	0	---	0.00	30.043 
08:05	64.8	64.8	64.8	95	63.3	0	0	---	0.00	30.043 
08:10	64.7	64.7	64.7	95	63.2	0	0	---	0.00	30.043 
08:15	64.7	64.7	64.7	95	63.2	0	0	---	0.00	30.054 
08:20	64.8	64.8	64.8	95	63.3	0	0	---	0.00	30.054 
08:25	64.8	64.8	64.8	95	63.3	0	0	---	0.00	30.054 
08:30	65.0	65.0	65.0	95	63.5	0	0	---	0.00	30.054 
08:35	65.0	65.0	65.0	95	63.5	0	0	---	0.00	30.054 
08:40	65.0	65.0	65.0	95	63.5	0	0	---	0.00	30.054 
08:45	65.0	65.0	65.0	95	63.5	0	0	---	0.00	30.057 
08:50	65.2	65.2	65.2	95	63.7	0	1	248	0.00	30.057 
08:55	65.2	65.2	65.2	95	63.7	0	0	---	0.00	30.057 
09:00	65.5	65.5	65.5	95	64.0	0	0	---	0.00	30.059 
09:05	65.6	65.6	65.6	95	64.1	0	1	248	0.00	30.059 
09:10	65.8	65.8	65.8	95	64.3	0	0	---	0.00	30.059 
09:15	66.0	66.0	66.0	95	64.5	0	0	---	0.00	30.061 
09:20	66.0	66.0	66.0	95	64.5	0	1	248	0.00	30.061 
09:25	66.0	66.0	66.0	95	64.5	0	0	---	0.00	30.061 
09:30	66.3	66.3	66.3	95	64.8	0	0	---	0.00	30.062 
09:35	66.3	66.3	66.3	95	64.8	0	1	248	0.00	30.062 
09:40	66.4	66.4	66.4	95	64.9	0	1	248	0.00	30.062 
09:45	66.4	66.4	66.4	94	64.6	0	1	248	0.00	30.068 
09:50	66.6	66.6	66.6	94	64.8	0	1	248	0.00	30.068 
09:55	66.8	66.8	66.8	93	64.7	0	1	248	0.00	30.068 
10:00	66.9	66.9	66.9	93	64.8	0	0	---	0.00	30.071 
10:05	67.1	67.1	67.1	92	64.7	0	1	248	0.00	30.071 
10:10	67.3	67.3	67.3	92	64.9	0	1	248	0.00	30.071 
10:15	67.6	67.6	67.6	91	64.9	0	0	---	0.00	30.071 
10:20	67.9	67.9	67.9	90	64.9	0	0	---	0.00	30.071 
10:25	68.3	68.3	68.3	89	64.9	0	0	---	0.00	30.071 
10:30	68.8	68.8	68.8	88	65.1	0	1	248	0.00	30.071 
10:35	68.9	68.9	68.9	87	64.9	0	0	---	0.00	30.071 
10:40	68.9	68.9	68.9	85	64.2	0	1	248	0.00	30.071 
10:45	68.9	68.9	68.9	84	63.9	0	1	248	0.00	30.073 
10:50	69.1	69.1	69.1	84	64.1	0	0	---	0.00	30.073 
10:55	69.1	69.1	69.1	83	63.7	0	1	248	0.00	30.073 
11:00	69.3	69.3	69.3	83	63.9	0	1	248	0.00	30.072 
11:05	69.4	69.4	69.4	83	64.0	0	1	248	0.00	30.072 
11:10	69.6	69.6	69.6	81	63.5	0	2	248	0.00	30.072 
11:15	69.8	69.8	69.8	80	63.3	0	2	248	0.00	30.072 
11:20	69.9	69.9	69.9	80	63.4	0	0	---	0.00	30.072 
11:25	70.1	70.1	70.1	80	63.6	0	1	248	0.00	30.072 
11:30	70.6	70.6	70.6	80	64.1	0	0	---	0.00	30.070 
11:35	71.1	71.1	71.1	79	64.2	0	2	248	0.00	30.070 
11:40	72.1	72.1	72.1	77	64.5	0	1	248	0.00	30.070 
11:45	72.8	72.8	72.8	75	64.4	1	2	248	0.00	30.067 
11:50	73.3	73.3	73.3	74	64.5	1	3	248	0.00	30.067 
11:55	73.7	73.7	73.7	73	64.5	1	3	68	0.00	30.067 
12:00	73.9	73.9	73.9	74	65.1	0	2	112	0.00	30.065 
12:05	74.4	74.4	74.4	73	65.2	0	2	112	0.00	30.065 
12:10	74.4	74.4	74.4	72	64.8	0	3	112	0.00	30.065 
12:15	74.4	74.4	74.4	73	65.2	0	1	112	0.00	30.064 
12:20	74.7	74.7	74.7	72	65.1	0	1	112	0.00	30.064 
12:25	75.1	75.1	76.6	72	65.4	0	2	112	0.00	30.064 
12:30	75.4	75.4	77.1	70	64.9	0	3	180	0.00	30.058 
12:35	75.1	75.1	76.8	70	64.6	1	3	180	0.00	30.058 
12:40	74.6	74.6	74.6	72	65.0	1	2	180	0.00	30.058 
12:45	74.6	74.6	74.6	72	65.0	0	3	180	0.00	30.053 
12:50	74.7	74.7	74.7	71	64.7	0	1	180	0.00	30.053 
12:55	75.1	75.1	76.7	71	65.0	0	1	180	0.00	30.053 
13:00	75.8	75.8	77.4	71	65.7	0	1	180	0.00	30.048 
13:05	76.7	76.7	78.5	68	65.3	0	1	180	0.00	30.048 
13:10	76.8	76.8	78.6	66	64.6	0	2	180	0.00	30.048 
13:15	77.0	77.0	78.8	67	65.2	0	2	180	0.00	30.048 
13:20	77.4	77.4	79.2	66	65.1	0	2	180	0.00	30.048 
13:25	77.7	77.7	79.5	65	65.0	0	1	180	0.00	30.048 
13:30	77.7	77.7	79.5	64	64.5	1	2	248	0.00	30.044 
13:35	77.2	77.2	79.0	65	64.5	1	2	248	0.00	30.044 
13:40	77.2	77.2	79.0	66	64.9	0	3	248	0.00	30.044 
13:45	77.4	77.4	79.2	65	64.7	0	1	248	0.00	30.041 
13:50	77.7	77.7	79.5	65	65.0	0	2	248	0.00	30.041 
13:55	78.1	78.1	80.0	65	65.4	0	2	248	0.00	30.041 
14:00	78.5	78.5	80.3	63	64.8	0	1	135	0.00	30.036 
14:05	78.6	78.6	80.4	63	64.9	0	2	135	0.00	30.036 
14:10	78.6	78.6	80.4	62	64.5	1	4	135	0.00	30.036 
14:15	77.9	77.9	79.7	65	65.2	2	4	90	0.00	30.030 
14:20	77.6	77.6	79.4	66	65.3	0	2	90	0.00	30.030 
14:25	77.9	77.9	79.7	64	64.7	0	3	90	0.00	30.030 
14:30	78.5	78.5	80.3	63	64.8	0	2	90	0.00	30.027 
14:35	78.8	78.8	80.6	62	64.7	0	2	90	0.00	30.027 
14:40	79.2	79.2	81.1	62	65.0	1	3	90	0.00	30.027 
14:45	79.4	79.4	81.2	61	64.8	0	1	90	0.00	30.020 
14:50	79.8	79.8	81.6	60	64.7	1	3	90	0.00	30.020 
14:55	79.8	79.8	81.6	60	64.7	0	2	90	0.00	30.020 
15:00	79.9	79.9	81.6	59	64.3	0	2	90	0.00	30.014 
15:05	79.9	79.9	81.8	61	65.2	0	1	90	0.00	30.014 
15:10	80.1	80.1	81.9	60	64.9	0	2	90	0.00	30.014 
15:15	79.9	79.9	81.6	59	64.3	2	4	292	0.00	30.015 
15:20	79.4	79.4	81.1	60	64.3	0	2	292	0.00	30.015 
15:25	79.6	79.6	81.4	61	64.9	1	3	292	0.00	30.015 
15:30	79.9	79.9	81.7	60	64.7	0	2	292	0.00	30.014 
15:35	80.3	80.3	82.1	59	64.6	0	2	292	0.00	30.014 
15:40	80.7	80.7	82.5	59	65.0	0	1	292	0.00	30.014 
15:45	80.9	80.9	82.7	58	64.7	0	2	292	0.00	30.011 
15:50	80.7	80.7	82.5	59	65.0	0	2	292	0.00	30.011 
15:55	80.9	80.9	82.8	59	65.2	0	1	292	0.00	30.011 
16:00	80.9	80.9	82.5	57	64.2	1	3	292	0.00	30.002 
16:05	80.7	80.7	82.0	55	63.0	1	2	292	0.00	30.002 
16:10	80.3	80.3	81.8	57	63.7	1	3	292	0.00	30.002 
16:15	80.3	80.3	81.9	58	64.2	0	2	292	0.00	30.001 
16:20	80.3	80.3	81.7	56	63.1	0	1	292	0.00	30.001 
16:25	80.7	80.7	82.4	58	64.5	1	2	292	0.00	30.001 
16:30	80.7	80.7	82.2	56	63.5	0	3	292	0.00	29.999 
16:35	80.7	80.7	82.0	55	63.0	0	2	292	0.00	29.999 
16:40	80.7	80.7	82.0	55	63.0	1	3	292	0.00	29.999 
16:45	80.7	80.7	82.0	55	63.0	1	3	292	0.00	29.998 
16:50	80.7	80.7	81.9	54	62.5	1	3	292	0.00	29.998 
16:55	80.7	80.7	82.0	55	63.0	0	3	292	0.00	29.998 
17:00	80.7	80.7	82.0	55	63.0	0	2	292	0.00	29.995 
17:05	80.7	80.7	82.3	57	64.0	0	1	292	0.00	29.995 
17:10	80.7	80.7	82.2	56	63.5	0	2	292	0.00	29.995 
17:15	80.7	80.7	81.9	54	62.5	0	1	292	0.00	29.989 
17:20	80.7	80.7	81.9	54	62.5	0	2	292	0.00	29.989 
17:25	80.5	80.5	81.8	55	62.8	1	3	292	0.00	29.989 
17:30	80.3	80.3	81.7	56	63.1	0	2	292	0.00	29.987 
17:35	80.1	80.1	81.5	56	63.0	1	5	90	0.00	29.987 
17:40	79.9	79.9	81.4	57	63.3	0	1	90	0.00	29.987 
17:45	79.9	79.9	81.3	56	62.8	0	1	90	0.00	29.988 
17:50	79.8	79.8	81.3	57	63.2	0	1	90	0.00	29.988 
17:55	79.6	79.6	81.0	56	62.5	0	1	90	0.00	29.988 
18:00	79.6	79.6	80.9	55	62.0	0	1	90	0.00	29.987 
18:05	79.4	79.4	80.7	55	61.8	0	1	90	0.00	29.987 
18:10	79.2	79.2	80.5	55	61.6	0	1	90	0.00	29.987 
18:15	79.2	79.2	80.6	56	62.1	0	0	---	0.00	29.988 
18:20	79.0	79.0	80.5	57	62.4	0	0	---	0.00	29.988 
18:25	78.6	78.6	80.1	58	62.6	0	0	---	0.00	29.988 
18:30	78.5	78.5	80.0	58	62.5	0	0	---	0.00	29.989 
18:35	78.3	78.3	79.9	59	62.8	0	0	---	0.00	29.989 
18:40	78.1	78.1	79.8	60	63.1	0	0	---	0.00	29.989 
18:45	77.7	77.7	79.4	60	62.7	0	0	---	0.00	29.991 
18:50	77.6	77.6	79.3	61	63.1	0	0	---	0.00	29.991 
18:55	77.2	77.2	79.0	61	62.7	0	0	---	0.00	29.991 
19:00	76.8	76.8	78.6	62	62.8	0	0	---	0.00	30.001 
19:05	76.7	76.7	78.5	62	62.7	0	0	---	0.00	30.001 
19:10	76.3	76.3	78.2	63	62.8	0	0	---	0.00	30.001 
19:15	76.0	76.0	77.9	63	62.5	0	0	---	0.00	30.003 
19:20	75.6	75.6	77.6	64	62.5	0	0	---	0.00	30.003 
19:25	75.4	75.4	77.4	64	62.4	0	0	---	0.00	30.003 
19:30	75.1	75.1	77.1	65	62.5	0	0	---	0.00	30.003 
19:35	75.1	75.1	77.1	65	62.5	0	0	---	0.00	30.003 
19:40	74.9	74.9	74.9	66	62.8	0	0	---	0.00	30.003 
19:45	74.7	74.7	74.7	66	62.6	0	0	---	0.00	30.005 
19:50	74.4	74.4	74.4	66	62.3	0	0	---	0.00	30.005 
19:55	74.2	74.2	74.2	67	62.5	0	0	---	0.00	30.005 
20:00	74.0	74.0	74.0	68	62.8	0	0	---	0.00	30.005 
20:05	73.7	73.7	73.7	69	62.9	0	0	---	0.00	30.005 
20:10	73.5	73.5	73.5	69	62.7	0	0	---	0.00	30.005 
20:15	73.2	73.2	73.2	70	62.8	0	0	---	0.00	30.008 
20:20	72.8	72.8	72.8	71	62.8	0	0	---	0.00	30.008 
20:25	72.3	72.3	72.3	72	62.8	0	0	---	0.00	30.008 
20:30	72.0	72.0	72.0	73	62.9	0	0	---	0.00	30.006 
20:35	71.6	71.6	71.6	74	62.9	0	0	---	0.00	30.006 
20:40	71.3	71.3	71.3	75	63.0	0	0	---	0.00	30.006 
20:45	70.9	70.9	70.9	76	62.9	0	0	---	0.00	30.007 
20:50	70.8	70.8	70.8	77	63.2	0	0	---	0.00	30.007 
20:55	70.6	70.6	70.6	77	63.0	0	0	---	0.00	30.007 
21:00	70.4	70.4	70.4	78	63.2	0	0	---	0.00	30.006 
21:05	70.4	70.4	70.4	78	63.2	0	0	---	0.00	30.006 
21:10	70.4	70.4	70.4	78	63.2	0	0	---	0.00	30.006 
21:15	70.4	70.4	70.4	79	63.6	0	0	---	0.00	30.005 
21:20	70.4	70.4	70.4	79	63.6	0	0	---	0.00	30.005 
21:25	70.3	70.3	70.3	79	63.5	0	0	---	0.00	30.005 
21:30	70.3	70.3	70.3	79	63.5	0	0	---	0.00	30.006 
21:35	70.1	70.1	70.1	79	63.3	0	0	---	0.00	30.006 
21:40	69.9	69.9	69.9	80	63.4	0	0	---	0.00	30.006 
21:45	69.6	69.6	69.6	80	63.1	0	0	---	0.00	30.008 
21:50	69.4	69.4	69.4	81	63.3	0	0	---	0.00	30.008 
21:55	69.3	69.3	69.3	81	63.2	0	0	---	0.00	30.008 
22:00	69.1	69.1	69.1	82	63.4	0	0	---	0.00	30.010 
22:05	68.9	68.9	68.9	83	63.5	0	0	---	0.00	30.010 
22:10	68.8	68.8	68.8	83	63.4	0	0	---	0.00	30.010 
22:15	68.6	68.6	68.6	84	63.6	0	0	---	0.00	30.011 
22:20	68.4	68.4	68.4	84	63.4	0	0	---	0.00	30.011 
22:25	68.3	68.3	68.3	84	63.3	0	0	---	0.00	30.011 
22:30	67.9	67.9	67.9	84	62.9	0	0	---	0.00	30.019 
22:35	67.8	67.8	67.8	85	63.1	0	0	---	0.00	30.019 
22:40	67.6	67.6	67.6	86	63.3	0	0	---	0.00	30.019 
22:45	67.4	67.4	67.4	86	63.1	0	0	---	0.00	30.019 
22:50	67.3	67.3	67.3	86	63.0	0	0	---	0.00	30.019 
22:55	67.1	67.1	67.1	87	63.1	0	0	---	0.00	30.019 
23:00	66.9	66.9	66.9	87	62.9	0	0	---	0.00	30.017 
23:05	66.8	66.8	66.8	87	62.8	0	0	---	0.00	30.017 
23:10	66.8	66.8	66.8	87	62.8	0	0	---	0.00	30.017 
23:15	66.6	66.6	66.6	88	62.9	0	0	---	0.00	30.016 
23:20	66.4	66.4	66.4	88	62.7	0	0	---	0.00	30.016 
23:25	66.4	66.4	66.4	88	62.7	0	0	---	0.00	30.016 
23:30	66.3	66.3	66.3	88	62.6	0	0	---	0.00	30.017 
23:35	66.3	66.3	66.3	88	62.6	0	0	---	0.00	30.017 
23:40	66.1	66.1	66.1	89	62.8	0	0	---	0.00	30.017 
23:45	66.0	66.0	66.0	89	62.7	0	0	---	0.00	30.019 
23:50	65.8	65.8	65.8	89	62.5	0	0	---	0.00	30.019 
23:55	65.6	65.6	65.6	90	62.6	0	0	---	0.00	30.019 

CoCoRaHS
IN-AL-39
A2 Web Hosting
Creative Commons License
GoDaddy
search engine by freefind advanced

loaded 2018-11-20 06:21:24 • last modified 2010-11-18 10:43:29
Privacy PolicyDisclaimer
• wx.awcolley.com is powered by PmWiki v.2002016 •
• all content (unless otherwise noted) © 2018 A W Colley